Time;durP1;ratioP1;P1;durP2;ratioP2;P2;SDS_P1;SDS_P2;PMS_P1;PMS_P2;Temp;Humidity;BMP_temperature;BMP_pressure;BME280_temperature;BME280_humidity;BME280_pressure;Samples;Min_cycle;Max_cycle;Signal;HPM_P1;HPM_P2
2021/05/15 00:00:13;;;;;;;2.45;1.17;;;;;;;11.08;99.41;97332.13;5012393;28;20041;-80
2021/05/15 00:02:39;;;;;;;3.80;1.20;;;;;;;11.01;99.83;97329.03;5012412;28;20133;-79
2021/05/15 00:05:06;;;;;;;8.52;1.20;;;;;;;10.93;100.00;97324.31;4994990;28;20033;-79
2021/05/15 00:07:32;;;;;;;1.88;0.82;;;;;;;10.99;100.00;97320.34;4994358;28;20096;-82
2021/05/15 00:09:58;;;;;;;4.13;1.38;;;;;;;10.87;100.00;97311.91;5012959;28;20546;-83
2021/05/15 00:12:24;;;;;;;8.10;1.70;;;;;;;10.83;100.00;97327.31;5012624;28;20113;-81
2021/05/15 00:14:50;;;;;;;4.90;1.05;;;;;;;10.75;100.00;97315.19;4995643;28;20022;-81
2021/05/15 00:17:16;;;;;;;4.18;1.33;;;;;;;10.75;100.00;97321.47;5012440;28;20483;-82
2021/05/15 00:19:41;;;;;;;2.60;1.23;;;;;;;10.86;100.00;97310.28;5011996;28;20040;-81
2021/05/15 00:22:07;;;;;;;2.63;0.85;;;;;;;10.83;100.00;97310.91;5011740;28;20033;-81
2021/05/15 00:24:32;;;;;;;5.07;1.40;;;;;;;10.71;100.00;97317.72;5012112;28;20032;-80
2021/05/15 00:26:58;;;;;;;2.95;1.17;;;;;;;10.67;100.00;97316.75;4994422;28;20029;-82
2021/05/15 00:29:23;;;;;;;2.47;1.10;;;;;;;10.63;100.00;97315.75;4994204;28;20065;-80
2021/05/15 00:31:49;;;;;;;2.85;2.03;;;;;;;10.70;100.00;97316.13;5011992;28;20026;-82
2021/05/15 00:34:14;;;;;;;1.73;1.13;;;;;;;10.65;100.00;97320.94;5012118;28;20026;-83
2021/05/15 00:36:40;;;;;;;1.30;1.20;;;;;;;10.73;100.00;97322.91;5011496;28;20526;-81
2021/05/15 00:39:07;;;;;;;1.77;1.30;;;;;;;10.68;100.00;97331.25;5012423;28;20069;-83
2021/05/15 00:41:32;;;;;;;1.35;1.00;;;;;;;10.73;100.00;97318.25;5011961;28;20399;-80
2021/05/15 00:46:40;;;;;;;3.83;1.40;;;;;;;10.58;100.00;97321.34;5011920;28;20540;-81
2021/05/15 00:49:06;;;;;;;3.97;0.95;;;;;;;10.45;100.00;97311.28;4994035;28;20482;-82
2021/05/15 00:51:33;;;;;;;2.35;1.55;;;;;;;10.49;100.00;97312.28;5011537;28;20050;-81
2021/05/15 00:54:01;;;;;;;3.25;1.48;;;;;;;10.61;100.00;97320.75;5011542;28;20100;-81
2021/05/15 00:56:28;;;;;;;3.78;2.38;;;;;;;10.57;100.00;97318.91;5011801;28;20128;-81
2021/05/15 00:58:55;;;;;;;2.47;1.73;;;;;;;10.60;100.00;97310.91;5011742;28;20418;-84
2021/05/15 01:01:20;;;;;;;2.28;1.42;;;;;;;10.66;100.00;97309.66;4994424;28;20053;-82
2021/05/15 01:03:46;;;;;;;3.15;1.25;;;;;;;10.65;100.00;97310.78;5012050;28;20030;-83
2021/05/15 01:06:11;;;;;;;2.10;1.65;;;;;;;10.65;100.00;97313.50;5011125;28;20042;-80
2021/05/15 01:08:40;;;;;;;1.60;1.33;;;;;;;10.63;100.00;97313.00;4993638;28;20033;-81
2021/05/15 01:11:05;;;;;;;2.33;1.52;;;;;;;10.56;100.00;97315.38;4994077;28;20014;-83
2021/05/15 01:13:35;;;;;;;6.22;1.92;;;;;;;10.72;100.00;97315.81;5011806;28;20380;-83
2021/05/15 01:16:00;;;;;;;3.75;1.48;;;;;;;10.67;100.00;97324.16;4993884;28;20037;-84
2021/05/15 01:18:26;;;;;;;5.22;1.38;;;;;;;10.71;100.00;97320.47;5011300;28;20033;-83
2021/05/15 01:20:57;;;;;;;4.63;1.33;;;;;;;10.70;100.00;97313.41;4993820;28;20037;-82
2021/05/15 01:23:22;;;;;;;2.05;1.33;;;;;;;10.82;100.00;97309.28;5010612;28;20029;-85
2021/05/15 01:25:48;;;;;;;3.35;1.23;;;;;;;10.55;100.00;97311.03;4993502;28;20030;-85
2021/05/15 01:28:13;;;;;;;2.95;1.25;;;;;;;10.65;100.00;97327.19;5000725;28;20041;-81
2021/05/15 01:30:39;;;;;;;2.78;1.50;;;;;;;10.72;100.00;97322.09;5007576;28;20410;-84
2021/05/15 01:33:05;;;;;;;1.15;1.05;;;;;;;10.64;100.00;97322.03;5005515;28;20022;-85
2021/05/15 01:35:30;;;;;;;2.45;1.35;;;;;;;10.57;100.00;97324.38;4993859;28;20490;-81
2021/05/15 01:37:57;;;;;;;2.58;1.00;;;;;;;10.66;100.00;97328.81;5011252;28;20030;-81
2021/05/15 01:40:22;;;;;;;4.82;1.55;;;;;;;10.65;100.00;97321.72;4994169;28;20026;-81
2021/05/15 01:42:48;;;;;;;1.95;1.52;;;;;;;10.53;100.00;97313.25;4993977;28;20575;-83
2021/05/15 01:45:13;;;;;;;3.20;1.35;;;;;;;10.49;100.00;97317.75;5012170;28;20029;-85
2021/05/15 01:47:39;;;;;;;4.70;1.70;;;;;;;10.59;100.00;97325.69;5010843;28;20410;-86
2021/05/15 01:50:07;;;;;;;3.08;1.63;;;;;;;10.59;100.00;97311.19;5011960;28;20045;-83
2021/05/15 01:52:32;;;;;;;1.92;1.65;;;;;;;10.67;100.00;97321.41;4994477;28;20018;-84
2021/05/15 01:54:58;;;;;;;3.08;1.80;;;;;;;10.73;100.00;97320.16;4994029;28;20034;-83
2021/05/15 01:57:23;;;;;;;3.60;1.33;;;;;;;10.71;100.00;97320.47;4994102;28;20475;-85
2021/05/15 01:59:49;;;;;;;3.60;1.70;;;;;;;10.97;100.00;97308.88;4994286;28;20049;-83
2021/05/15 02:02:14;;;;;;;6.10;1.95;;;;;;;10.83;100.00;97306.22;5011191;28;20399;-81
2021/05/15 02:04:40;;;;;;;5.68;3.30;;;;;;;10.71;100.00;97315.00;4993537;28;20030;-83
2021/05/15 02:07:05;;;;;;;6.55;2.17;;;;;;;10.79;100.00;97309.91;4977445;28;20586;-83
2021/05/15 02:09:30;;;;;;;2.42;1.73;;;;;;;10.69;100.00;97305.50;4978044;28;20034;-82
2021/05/15 02:11:56;;;;;;;2.17;1.90;;;;;;;10.54;100.00;97303.94;5003507;28;20026;-80
2021/05/15 02:14:21;;;;;;;2.95;2.53;;;;;;;10.71;100.00;97309.53;4993366;28;20025;-82
2021/05/15 02:16:46;;;;;;;3.05;2.35;;;;;;;10.69;100.00;97306.31;5011004;28;20018;-80
2021/05/15 02:19:12;;;;;;;5.05;3.15;;;;;;;10.64;100.00;97302.91;5013492;28;20022;-81
2021/05/15 02:21:37;;;;;;;3.75;2.25;;;;;;;10.56;100.00;97304.44;5014514;28;20121;-82
2021/05/15 02:24:04;;;;;;;3.78;2.60;;;;;;;10.49;100.00;97306.81;4996908;28;20387;-82
2021/05/15 02:26:29;;;;;;;5.03;3.55;;;;;;;10.49;100.00;97301.34;4996763;28;20030;-81
2021/05/15 02:28:54;;;;;;;5.18;4.40;;;;;;;10.71;100.00;97306.00;5014188;28;20030;-83
2021/05/15 02:31:20;;;;;;;8.55;7.15;;;;;;;10.65;100.00;97302.56;4996644;28;20030;-83
2021/05/15 02:33:45;;;;;;;10.73;8.77;;;;;;;10.57;100.00;97303.31;5013722;28;20029;-83
2021/05/15 02:36:11;;;;;;;9.35;7.68;;;;;;;10.85;100.00;97323.13;5013782;28;20072;-81
2021/05/15 02:38:36;;;;;;;6.05;4.75;;;;;;;10.82;100.00;97320.22;4996698;28;20084;-82
2021/05/15 02:41:01;;;;;;;4.05;2.25;;;;;;;10.65;100.00;97310.78;4997018;28;20121;-81
2021/05/15 02:43:27;;;;;;;4.63;1.83;;;;;;;10.61;100.00;97319.91;5013525;28;20539;-83
2021/05/15 02:45:52;;;;;;;2.92;1.48;;;;;;;10.54;100.00;97316.81;5013748;28;20466;-81
2021/05/15 02:48:18;;;;;;;3.03;1.70;;;;;;;10.56;100.00;97320.03;5013434;28;20554;-81
2021/05/15 02:50:48;;;;;;;3.10;1.45;;;;;;;10.53;100.00;97318.72;5013288;28;20029;-83
2021/05/15 02:53:15;;;;;;;4.82;2.05;;;;;;;10.53;100.00;97306.97;5013362;28;20034;-81
2021/05/15 02:55:41;;;;;;;2.35;1.73;;;;;;;10.54;100.00;97316.81;5013752;28;20022;-80
2021/05/15 02:58:06;;;;;;;5.22;1.95;;;;;;;10.62;100.00;97316.88;4995959;28;20494;-82
2021/05/15 03:00:32;;;;;;;8.95;2.28;;;;;;;10.47;100.00;97313.69;5013037;28;20029;-80
2021/05/15 03:03:00;;;;;;;3.17;1.55;;;;;;;10.35;100.00;97317.00;4996439;28;20046;-81
2021/05/15 03:05:27;;;;;;;3.15;1.40;;;;;;;10.41;100.00;97310.28;5014853;28;20037;-78
2021/05/15 03:07:53;;;;;;;2.25;1.35;;;;;;;10.40;100.00;97314.13;5023676;28;20030;-81
2021/05/15 03:10:22;;;;;;;4.68;1.73;;;;;;;10.42;100.00;97308.34;5027261;28;20022;-83
2021/05/15 03:12:48;;;;;;;1.85;1.33;;;;;;;10.46;100.00;97317.56;5017118;28;20157;-82
2021/05/15 03:15:13;;;;;;;4.75;1.88;;;;;;;10.44;100.00;97309.66;4995984;28;20125;-80
2021/05/15 03:17:41;;;;;;;3.10;1.60;;;;;;;10.46;100.00;97318.34;5013507;28;20135;-82
2021/05/15 03:20:11;;;;;;;2.90;1.50;;;;;;;10.52;100.00;97319.06;5013032;28;20040;-80
2021/05/15 03:22:36;;;;;;;1.27;1.10;;;;;;;10.55;100.00;97313.78;5013232;28;20040;-82
2021/05/15 03:25:07;;;;;;;1.83;1.63;;;;;;;10.50;100.00;97319.34;5012877;28;20042;-83
2021/05/15 03:27:33;;;;;;;3.20;1.88;;;;;;;10.42;100.00;97313.81;5012932;28;20026;-80
2021/05/15 03:29:59;;;;;;;3.80;3.15;;;;;;;10.53;100.00;97315.19;5013084;28;20026;-81
2021/05/15 03:32:24;;;;;;;1.90;1.38;;;;;;;10.60;100.00;97313.63;5012852;28;20079;-82
2021/05/15 03:34:50;;;;;;;4.82;1.75;;;;;;;10.53;100.00;97317.91;5012933;28;20069;-81
2021/05/15 03:37:15;;;;;;;1.73;1.52;;;;;;;10.38;100.00;97319.09;5012554;28;20076;-80
2021/05/15 03:39:41;;;;;;;2.78;1.52;;;;;;;10.30;100.00;97308.91;5012940;28;20029;-83
2021/05/15 03:42:06;;;;;;;3.28;1.35;;;;;;;10.37;100.00;97314.75;5013111;28;20023;-83
2021/05/15 03:44:31;;;;;;;1.92;1.83;;;;;;;10.40;100.00;97314.13;5012525;28;20387;-80
2021/05/15 03:46:57;;;;;;;2.38;1.40;;;;;;;10.47;100.00;97309.03;5012714;28;20117;-80
2021/05/15 03:49:22;;;;;;;2.95;1.77;;;;;;;10.49;100.00;97306.81;5012129;28;20042;-78
2021/05/15 03:51:48;;;;;;;4.63;1.52;;;;;;;10.42;100.00;97302.88;4994905;28;20117;-78
2021/05/15 03:54:14;;;;;;;2.67;1.90;;;;;;;10.56;100.00;97312.63;5012753;28;20113;-81
2021/05/15 03:56:39;;;;;;;2.25;1.90;;;;;;;10.42;100.00;97300.97;5012254;28;20449;-80
2021/05/15 03:59:05;;;;;;;2.47;2.22;;;;;;;10.44;100.00;97308.84;5012210;28;20021;-81
2021/05/15 04:01:30;;;;;;;3.42;1.70;;;;;;;10.37;100.00;97309.28;5012119;28;20115;-82
2021/05/15 04:03:56;;;;;;;2.17;1.67;;;;;;;10.43;100.00;97316.22;5011920;28;20077;-82
2021/05/15 04:06:21;;;;;;;5.07;2.05;;;;;;;10.44;100.00;97309.66;5011849;28;20043;-79
2021/05/15 04:08:47;;;;;;;3.65;1.63;;;;;;;10.50;100.00;97319.34;5011881;28;20030;-82
2021/05/15 04:11:12;;;;;;;2.65;1.90;;;;;;;10.53;100.00;97318.72;5012571;28;20030;-81
2021/05/15 04:13:49;;;;;;;4.80;2.15;;;;;;;10.52;100.00;97319.88;5012184;28;20029;-82
2021/05/15 04:18:40;;;;;;;3.30;2.38;;;;;;;10.62;100.00;97314.13;5011676;28;20105;-85
2021/05/15 04:21:05;;;;;;;2.80;1.50;;;;;;;10.68;100.00;97312.88;5012047;28;20502;-82
2021/05/15 04:23:31;;;;;;;7.00;1.70;;;;;;;10.71;100.00;97320.47;5011830;28;20030;-82
2021/05/15 04:25:58;;;;;;;3.42;1.80;;;;;;;10.87;100.00;97317.38;5012214;28;20033;-82
2021/05/15 04:28:24;;;;;;;4.85;2.40;;;;;;;10.80;100.00;97327.94;5011607;28;20030;-82
2021/05/15 04:30:49;;;;;;;5.53;1.92;;;;;;;10.91;100.00;97340.22;5011632;28;20036;-81
2021/05/15 04:33:15;;;;;;;7.07;1.88;;;;;;;11.03;100.00;97322.09;5011834;28;20136;-82
2021/05/15 04:35:40;;;;;;;3.47;2.15;;;;;;;11.13;100.00;97323.78;5011647;28;20029;-82
2021/05/15 04:38:06;;;;;;;1.60;1.35;;;;;;;11.53;99.87;97324.59;4994270;28;20026;-81
2021/05/15 04:40:33;;;;;;;3.28;1.02;;;;;;;11.72;98.48;97339.69;5011324;28;20022;-82
2021/05/15 04:42:59;;;;;;;4.15;1.73;;;;;;;11.68;97.74;97318.69;4994251;28;20030;-84
2021/05/15 04:45:27;;;;;;;3.00;1.67;;;;;;;11.69;96.47;97325.78;5011774;28;20072;-81
2021/05/15 04:47:52;;;;;;;4.55;2.20;;;;;;;11.73;96.88;97322.13;5011666;28;20036;-83
2021/05/15 04:50:18;;;;;;;3.42;1.38;;;;;;;11.61;96.99;97330.13;5011764;28;20112;-83
2021/05/15 04:52:43;;;;;;;6.00;1.40;;;;;;;11.58;96.92;97333.50;5011372;28;20022;-84
2021/05/15 04:55:09;;;;;;;2.28;1.60;;;;;;;11.45;97.15;97334.41;5011481;28;20026;-81
2021/05/15 04:57:34;;;;;;;6.35;1.77;;;;;;;11.32;98.32;97345.44;4993388;28;20026;-80
2021/05/15 05:00:00;;;;;;;4.88;1.38;;;;;;;11.35;97.77;97340.16;5011469;28;20022;-81
2021/05/15 05:02:25;;;;;;;4.40;2.20;;;;;;;11.52;98.01;97345.72;5010984;28;20053;-82
2021/05/15 05:04:51;;;;;;;2.88;1.58;;;;;;;11.58;97.39;97355.41;5011374;28;20734;-81
2021/05/15 05:07:17;;;;;;;2.75;1.20;;;;;;;11.59;96.32;97340.56;5011546;28;20124;-82
2021/05/15 05:09:44;;;;;;;2.17;1.38;;;;;;;11.59;97.42;97351.53;4994838;28;20033;-87
2021/05/15 05:12:09;;;;;;;2.50;1.50;;;;;;;11.41;98.41;97355.31;5013646;28;20053;-85
2021/05/15 05:14:37;;;;;;;1.63;1.23;;;;;;;11.39;97.74;97356.75;4997027;28;20029;-86
2021/05/15 05:17:03;;;;;;;1.73;1.58;;;;;;;11.42;98.66;97358.88;5004917;28;20033;-86
2021/05/15 05:19:28;;;;;;;1.75;1.38;;;;;;;11.32;99.39;97362.69;5006165;28;20063;-86
2021/05/15 05:21:55;;;;;;;6.22;1.50;;;;;;;11.55;97.98;97349.75;4999555;28;20134;-87
2021/05/15 05:24:21;;;;;;;7.18;1.95;;;;;;;11.49;97.65;97357.31;4995529;28;20048;-84
2021/05/15 05:26:47;;;;;;;2.72;1.40;;;;;;;11.47;96.89;97354.06;4994185;28;20038;-83
2021/05/15 05:29:12;;;;;;;6.03;1.85;;;;;;;11.49;97.63;97365.50;4994441;28;20035;-86
2021/05/15 05:31:40;;;;;;;5.45;2.00;;;;;;;11.52;97.12;97353.13;4994704;28;20057;-86
2021/05/15 05:34:07;;;;;;;1.83;1.30;;;;;;;11.58;96.15;97366.34;4995145;28;20371;-86
2021/05/15 05:36:33;;;;;;;2.83;1.25;;;;;;;11.85;95.43;97364.53;4995015;28;20040;-84
2021/05/15 05:38:59;;;;;;;2.05;1.50;;;;;;;11.86;96.35;97356.00;4995079;28;20113;-86
2021/05/15 05:41:25;;;;;;;4.43;1.45;;;;;;;11.79;97.35;97369.34;4995473;28;20461;-83
2021/05/15 05:43:52;;;;;;;4.82;1.95;;;;;;;11.75;98.04;97371.91;4994478;28;20034;-86
2021/05/15 05:46:18;;;;;;;1.50;1.40;;;;;;;11.78;98.80;97363.06;4994365;28;20022;-86
2021/05/15 05:48:43;;;;;;;1.92;1.02;;;;;;;11.73;98.03;97360.47;4994454;28;20035;-87
2021/05/15 05:51:09;;;;;;;1.17;1.08;;;;;;;11.90;97.95;97373.44;4994781;28;20525;-85
2021/05/15 05:53:34;;;;;;;1.38;1.00;;;;;;;11.80;97.30;97349.06;4998323;28;20117;-85
2021/05/15 05:56:00;;;;;;;1.95;1.75;;;;;;;12.01;96.79;97362.97;4999389;28;20058;-83
2021/05/15 05:58:25;;;;;;;3.97;1.60;;;;;;;12.00;96.21;97366.81;4999714;28;20097;-84
2021/05/15 06:00:51;;;;;;;1.75;1.33;;;;;;;12.04;96.36;97370.56;4998414;28;20064;-85
2021/05/15 06:03:16;;;;;;;2.78;1.70;;;;;;;11.98;95.49;97369.91;5000476;28;20049;-84
2021/05/15 06:05:42;;;;;;;3.95;2.08;;;;;;;12.01;94.90;97362.97;4999248;28;20084;-86
2021/05/15 06:08:09;;;;;;;76.80;45.63;;;;;;;11.96;95.39;97365.88;4998911;28;20049;-89
2021/05/15 06:10:35;;;;;;;2.33;1.92;;;;;;;12.06;95.19;97365.56;4999822;28;20025;-87
2021/05/15 06:13:02;;;;;;;3.17;1.98;;;;;;;12.02;95.45;97370.06;4998591;28;20625;-87
2021/05/15 06:15:28;;;;;;;7.43;2.22;;;;;;;12.16;94.76;97371.53;4998397;28;20050;-86
2021/05/15 06:17:53;;;;;;;3.10;1.73;;;;;;;12.04;94.19;97356.84;4994664;28;20026;-87
2021/05/15 06:20:19;;;;;;;3.92;1.95;;;;;;;12.14;94.96;97375.75;4999002;28;20489;-88
2021/05/15 06:22:44;;;;;;;2.45;1.60;;;;;;;12.11;95.35;97377.19;4999365;28;20022;-85
2021/05/15 06:25:14;;;;;;;2.92;1.80;;;;;;;12.17;93.92;97384.13;5009267;28;20108;-85
2021/05/15 06:27:42;;;;;;;3.03;1.70;;;;;;;12.05;95.44;97380.41;5008157;28;20037;-76
2021/05/15 06:30:08;;;;;;;3.03;2.20;;;;;;;12.02;95.35;97375.56;5016381;28;20028;-75
2021/05/15 06:32:34;;;;;;;6.00;2.47;;;;;;;12.00;95.24;97389.56;5013547;28;20033;-76
2021/05/15 06:35:00;;;;;;;6.72;3.13;;;;;;;12.15;94.95;97391.84;4986846;28;20070;-76
2021/05/15 06:37:25;;;;;;;4.60;2.00;;;;;;;12.14;94.48;97390.25;4993539;28;20026;-77
2021/05/15 06:39:50;;;;;;;4.13;2.05;;;;;;;12.34;94.18;97386.91;4976234;28;20063;-76
2021/05/15 06:42:16;;;;;;;4.63;1.75;;;;;;;12.49;93.10;97380.16;4976387;28;20034;-77
2021/05/15 06:44:42;;;;;;;3.92;1.95;;;;;;;12.62;92.11;97384.69;4993083;28;20066;-78
2021/05/15 06:47:07;;;;;;;4.18;1.95;;;;;;;13.02;91.29;97399.03;4993735;28;20788;-77
2021/05/15 06:49:34;;;;;;;7.88;2.92;;;;;;;13.28;89.12;97396.28;4975863;28;20029;-76
2021/05/15 06:51:59;;;;;;;5.20;2.17;;;;;;;13.56;87.39;97411.25;4993258;28;20405;-76
2021/05/15 06:54:24;;;;;;;4.40;2.08;;;;;;;13.64;86.18;97382.91;4993445;28;20458;-75
2021/05/15 06:56:50;;;;;;;3.97;1.90;;;;;;;13.79;85.30;97396.09;4975523;28;20022;-76
2021/05/15 06:59:17;;;;;;;2.65;1.95;;;;;;;13.76;86.28;97391.28;4993436;28;20038;-75
2021/05/15 07:01:42;;;;;;;2.95;1.42;;;;;;;13.98;84.86;97386.63;4992922;28;20061;-76
2021/05/15 07:04:08;;;;;;;2.88;1.63;;;;;;;13.80;83.95;97383.97;4999805;28;20037;-75
2021/05/15 07:06:33;;;;;;;2.90;1.67;;;;;;;13.87;83.29;97380.72;5012625;28;20068;-76
2021/05/15 07:08:59;;;;;;;4.28;1.65;;;;;;;14.11;82.94;97399.34;4995030;28;20045;-76
2021/05/15 07:11:24;;;;;;;5.00;2.00;;;;;;;14.10;81.37;97400.47;5013062;28;20120;-73
2021/05/15 07:13:49;;;;;;;2.28;1.27;;;;;;;14.52;79.74;97393.16;5012282;28;20116;-74
2021/05/15 07:16:15;;;;;;;2.47;1.08;;;;;;;14.36;78.28;97387.44;5011733;28;20030;-74
2021/05/15 07:18:40;;;;;;;3.42;1.63;;;;;;;14.69;77.71;97390.28;4993435;28;20041;-76
2021/05/15 07:21:10;;;;;;;3.25;1.50;;;;;;;15.17;76.82;97397.94;5010270;28;20063;-75
2021/05/15 07:23:36;;;;;;;2.03;1.65;;;;;;;14.66;75.98;97391.75;5010845;28;20091;-77
2021/05/15 07:26:01;;;;;;;5.07;1.17;;;;;;;14.81;76.33;97393.91;5018267;28;20060;-75
2021/05/15 07:28:27;;;;;;;3.58;1.80;;;;;;;15.00;75.32;97391.44;5019879;28;20038;-78
2021/05/15 07:30:52;;;;;;;2.63;1.60;;;;;;;14.69;76.32;97402.06;5018292;28;20545;-75
2021/05/15 07:33:17;;;;;;;2.42;1.05;;;;;;;14.69;75.49;97384.78;5019540;28;20032;-75
2021/05/15 07:35:43;;;;;;;3.97;1.52;;;;;;;14.75;75.72;97389.75;5021392;28;20561;-76
2021/05/15 07:38:08;;;;;;;1.20;1.10;;;;;;;15.22;73.71;97392.25;5021165;28;20112;-76
2021/05/15 07:40:34;;;;;;;2.90;1.10;;;;;;;15.27;73.12;97390.06;5006234;28;20038;-75
2021/05/15 07:43:00;;;;;;;3.17;1.85;;;;;;;16.21;71.13;97384.59;5019652;28;20026;-76
2021/05/15 07:45:25;;;;;;;3.38;1.48;;;;;;;15.92;69.44;97393.91;5020983;28;20018;-76
2021/05/15 07:47:51;;;;;;;3.00;2.10;;;;;;;15.93;69.16;97384.50;5002869;28;20072;-76
2021/05/15 07:50:16;;;;;;;2.97;0.85;;;;;;;15.97;67.95;97383.47;5022436;28;20029;-76
2021/05/15 07:52:42;;;;;;;3.13;1.30;;;;;;;16.38;67.43;97395.41;4994068;28;20052;-75
2021/05/15 07:55:09;;;;;;;1.48;1.17;;;;;;;16.06;66.42;97399.91;5025710;28;20029;-77
2021/05/15 07:57:35;;;;;;;3.67;1.60;;;;;;;16.27;66.68;97384.03;5009073;28;20390;-78
2021/05/15 08:00:03;;;;;;;4.95;1.55;;;;;;;16.80;65.12;97396.75;5008972;28;20017;-75
2021/05/15 08:02:29;;;;;;;5.18;1.05;;;;;;;16.95;64.84;97397.97;5011990;28;20121;-76
2021/05/15 08:04:58;;;;;;;102.47;67.43;;;;;;;17.08;65.09;97396.75;5018096;28;20108;-77
2021/05/15 08:07:24;;;;;;;5.10;3.50;;;;;;;17.15;64.29;97396.97;5018197;28;20112;-74
2021/05/15 08:09:49;;;;;;;25.63;19.30;;;;;;;17.03;64.33;97392.31;5019845;28;20121;-76
2021/05/15 08:12:18;;;;;;;3.15;1.77;;;;;;;16.82;64.99;97386.13;5008879;28;20061;-75
2021/05/15 08:14:43;;;;;;;3.30;1.80;;;;;;;16.88;65.62;97387.53;5017845;28;20029;-82
2021/05/15 08:17:09;;;;;;;12.95;8.82;;;;;;;16.58;65.75;97398.06;5021420;28;20094;-75
2021/05/15 08:19:35;;;;;;;4.50;3.47;;;;;;;16.29;66.42;97408.53;5017232;28;20018;-82
2021/05/15 08:22:00;;;;;;;10.70;5.30;;;;;;;16.21;67.05;97413.00;5021093;28;20028;-78
2021/05/15 08:24:26;;;;;;;2.42;1.70;;;;;;;16.65;66.36;97407.72;5021300;28;20042;-78
2021/05/15 08:26:51;;;;;;;2.67;1.55;;;;;;;15.92;66.84;97402.19;5017879;28;20473;-75
2021/05/15 08:29:21;;;;;;;1.63;1.23;;;;;;;16.11;66.60;97413.47;5013542;28;20481;-75
2021/05/15 08:31:50;;;;;;;1.58;1.20;;;;;;;16.39;67.29;97410.81;5017816;28;20386;-75
2021/05/15 08:34:18;;;;;;;3.83;1.63;;;;;;;16.27;67.77;97414.41;5016343;28;20025;-76
2021/05/15 08:36:44;;;;;;;3.35;1.85;;;;;;;16.34;66.98;97413.81;5019748;28;20026;-79
2021/05/15 08:39:10;;;;;;;3.25;1.58;;;;;;;16.30;67.37;97418.41;4998630;28;20034;-75
2021/05/15 08:41:37;;;;;;;2.65;1.50;;;;;;;15.98;67.95;97414.59;5011515;28;20033;-76
2021/05/15 08:44:03;;;;;;;2.33;1.70;;;;;;;16.35;66.51;97423.72;5012512;28;20184;-74
2021/05/15 08:46:30;;;;;;;5.00;1.63;;;;;;;16.73;65.87;97420.59;5020288;28;20029;-74
2021/05/15 08:48:58;;;;;;;2.13;1.58;;;;;;;17.03;64.69;97419.94;5003812;28;20025;-84
2021/05/15 08:51:25;;;;;;;4.80;1.70;;;;;;;17.06;65.17;97421.19;5015689;28;20493;-86
2021/05/15 08:53:51;;;;;;;2.88;1.60;;;;;;;17.76;63.72;97430.69;5018647;28;20474;-82
2021/05/15 08:56:17;;;;;;;8.38;2.25;;;;;;;17.84;62.46;97417.84;5012625;28;20040;-82
2021/05/15 08:58:42;;;;;;;2.85;1.83;;;;;;;18.65;58.14;97419.88;5026789;28;20020;-82
2021/05/15 09:01:13;;;;;;;2.10;1.45;;;;;;;17.99;59.47;97408.75;5022783;28;20029;-81
2021/05/15 09:03:38;;;;;;;2.47;1.85;;;;;;;17.57;61.36;97412.00;5021937;28;20030;-84
2021/05/15 09:06:04;;;;;;;3.70;1.25;;;;;;;17.86;60.97;97415.53;5018089;28;20488;-82
2021/05/15 09:08:30;;;;;;;1.92;1.33;;;;;;;17.85;59.90;97403.66;5026875;28;20028;-82
2021/05/15 09:10:55;;;;;;;2.42;1.50;;;;;;;17.97;59.92;97398.03;5023229;28;20021;-81
2021/05/15 09:13:24;;;;;;;3.35;1.75;;;;;;;18.82;56.87;97404.81;5026610;28;20057;-83
2021/05/15 09:16:05;;;;;;;2.17;1.15;;;;;;;19.03;55.78;97403.31;5031129;28;20025;-82
2021/05/15 09:18:34;;;;;;;3.55;1.95;;;;;;;18.95;56.16;97409.88;5025032;28;20022;-81
2021/05/15 09:21:06;;;;;;;3.03;1.40;;;;;;;19.10;55.85;97402.66;4997835;28;20026;-80
2021/05/15 09:23:34;;;;;;;3.33;1.58;;;;;;;19.11;54.97;97407.84;5015957;28;20029;-82
2021/05/15 09:26:06;;;;;;;4.15;1.65;;;;;;;18.18;57.08;97395.00;5017775;28;20566;-80
2021/05/15 09:28:52;;;;;;;3.88;1.70;;;;;;;18.38;57.90;97399.44;5020507;28;20037;-83
2021/05/15 09:31:19;;;;;;;2.22;1.92;;;;;;;19.98;51.71;97398.84;5024588;28;20148;-82
2021/05/15 09:33:54;;;;;;;3.28;1.48;;;;;;;20.83;50.34;97394.69;5030616;28;20474;-80
2021/05/15 09:36:24;;;;;;;5.43;1.60;;;;;;;19.92;52.47;97388.44;5027244;28;20494;-82
2021/05/15 09:39:05;;;;;;;3.85;1.30;;;;;;;20.46;50.73;97390.91;5019708;28;20302;-85
2021/05/15 09:41:44;;;;;;;3.42;1.25;;;;;;;22.67;46.11;97388.31;5023860;28;20053;-81
2021/05/15 09:44:14;;;;;;;1.70;1.13;;;;;;;22.49;44.80;97387.34;5015021;28;20038;-78
2021/05/15 09:46:43;;;;;;;1.23;0.93;;;;;;;24.39;40.88;97382.53;5025652;28;20083;-82
2021/05/15 09:49:09;;;;;;;2.85;1.05;;;;;;;22.92;42.46;97375.31;5019286;28;20026;-86
2021/05/15 09:51:37;;;;;;;1.05;0.95;;;;;;;21.94;45.79;97376.13;5041657;28;20505;-83
2021/05/15 09:54:20;;;;;;;2.00;0.95;;;;;;;20.17;50.28;97356.31;5025980;28;20519;-82
2021/05/15 09:57:06;;;;;;;3.88;1.38;;;;;;;19.93;52.29;97351.13;5026692;28;20112;-85
2021/05/15 09:59:37;;;;;;;1.50;1.02;;;;;;;20.01;52.12;97350.09;5021733;28;20064;-84
2021/05/15 10:02:07;;;;;;;3.72;1.15;;;;;;;19.41;53.39;97346.25;4996408;28;20148;-81
2021/05/15 10:04:33;;;;;;;1.52;0.82;;;;;;;19.02;53.67;97342.69;5028187;28;20033;-77
2021/05/15 10:07:00;;;;;;;2.17;0.63;;;;;;;19.11;52.95;97335.75;5018791;28;20034;-80
2021/05/15 10:09:31;;;;;;;1.30;0.85;;;;;;;19.51;52.20;97335.38;5026577;28;20024;-84
2021/05/15 10:11:59;;;;;;;1.75;0.88;;;;;;;19.91;51.89;97331.28;5024649;28;20526;-86
2021/05/15 10:14:25;;;;;;;3.85;1.08;;;;;;;20.02;52.14;97332.25;5011282;28;20111;-81
2021/05/15 10:16:51;;;;;;;3.33;1.23;;;;;;;19.80;52.25;97325.53;5017267;28;20021;-85
2021/05/15 10:19:16;;;;;;;2.20;1.38;;;;;;;20.10;51.78;97329.25;5021748;28;20375;-86
2021/05/15 10:21:43;;;;;;;1.42;1.13;;;;;;;21.26;47.92;97329.28;5023561;28;20035;-78
2021/05/15 10:24:20;;;;;;;1.35;0.88;;;;;;;22.95;42.36;97335.47;5022150;28;20022;-78
2021/05/15 10:27:11;;;;;;;4.03;0.93;;;;;;;21.93;45.39;97335.53;5023366;28;20117;-83
2021/05/15 10:29:47;;;;;;;4.50;0.88;;;;;;;20.32;48.11;97329.59;5026745;28;20029;-75
2021/05/15 10:32:16;;;;;;;2.40;1.30;;;;;;;20.23;49.19;97319.53;5021129;28;20049;-80
2021/05/15 10:34:46;;;;;;;5.95;1.48;;;;;;;19.44;49.67;97313.03;5005101;28;20033;-82
2021/05/15 10:37:15;;;;;;;1.20;0.80;;;;;;;18.39;52.54;97306.06;5025325;28;20541;-76
2021/05/15 10:39:41;;;;;;;3.03;1.25;;;;;;;18.05;54.79;97311.25;5004908;28;20029;-74
2021/05/15 10:42:06;;;;;;;3.63;1.75;;;;;;;18.21;54.07;97302.91;5023060;28;20021;-75
2021/05/15 10:44:39;;;;;;;3.03;1.08;;;;;;;18.24;54.70;97298.59;5020122;28;20032;-74
2021/05/15 10:47:05;;;;;;;6.13;1.13;;;;;;;18.66;52.11;97299.59;5020181;28;20025;-75
2021/05/15 10:49:31;;;;;;;2.92;1.00;;;;;;;18.52;53.04;97290.97;5011877;28;20033;-75
2021/05/15 10:52:14;;;;;;;1.27;1.00;;;;;;;18.56;52.74;97283.53;5020605;28;20026;-74
2021/05/15 10:54:42;;;;;;;1.75;0.98;;;;;;;18.38;54.11;97285.91;5014061;28;20038;-73
2021/05/15 10:57:34;;;;;;;3.38;1.23;;;;;;;18.81;52.48;97279.31;5014919;28;20030;-74
2021/05/15 11:00:03;;;;;;;3.28;1.45;;;;;;;18.49;53.75;97272.25;5007914;28;20049;-75
2021/05/15 11:02:33;;;;;;;7.40;1.83;;;;;;;18.22;54.54;97276.03;5010965;28;20125;-81
2021/05/15 11:05:02;;;;;;;1.10;0.90;;;;;;;18.60;53.13;97274.16;5011827;28;20033;-78
2021/05/15 11:07:35;;;;;;;4.65;1.23;;;;;;;18.61;52.89;97280.47;5011922;28;20034;-79
2021/05/15 11:10:07;;;;;;;1.58;1.40;;;;;;;19.12;52.05;97281.09;4988455;28;20398;-73
2021/05/15 11:12:40;;;;;;;3.70;1.00;;;;;;;19.07;51.74;97275.88;5021063;28;20032;-75
2021/05/15 11:15:10;;;;;;;2.15;1.13;;;;;;;19.56;50.39;97264.88;5014273;28;20022;-77
2021/05/15 11:17:35;;;;;;;4.40;0.93;;;;;;;20.49;47.81;97262.34;5017032;28;20104;-77
2021/05/15 11:20:17;;;;;;;7.78;4.93;;;;;;;20.35;47.54;97257.41;5014138;28;20084;-75
2021/05/15 11:22:42;;;;;;;4.97;2.15;;;;;;;20.17;48.19;97248.00;5020388;28;20041;-76
2021/05/15 11:25:14;;;;;;;1.70;1.35;;;;;;;20.27;47.43;97250.94;5013074;28;20383;-74
2021/05/15 11:28:01;;;;;;;7.28;0.70;;;;;;;19.79;48.90;97246.25;5018250;28;20033;-75
2021/05/15 11:30:30;;;;;;;5.40;0.80;;;;;;;19.65;48.38;97246.00;5017127;28;20022;-76
2021/05/15 11:32:59;;;;;;;0.77;0.73;;;;;;;19.50;48.73;97244.16;5018824;28;20033;-75